Time,TemperatureF,DewpointF,PressureIn,WindDirection,WindDirectionDegrees,WindSpeedMPH,WindSpeedGustMPH,Humidity,HourlyPrecipIn,Conditions,Clouds,dailyrainin,SolarRadiationWatts/m^2,SoftwareType,DateUTC
2013-01-11 00:04:00,68.0,67.0,-100.00,NNE,31,4.0,5.0,95,0.00,,,0.00,0.000000,,2013-01-11 05:04:00,
2013-01-11 00:13:00,68.0,67.0,-100.00,NNE,31,4.0,5.0,95,0.00,,,0.00,0.000000,,2013-01-11 05:13:00,
2013-01-11 00:23:00,68.0,67.0,-100.00,NNE,31,4.0,5.0,95,0.00,,,0.00,0.000000,,2013-01-11 05:23:00,
2013-01-11 00:32:00,69.0,67.0,-100.00,NE,35,2.0,4.0,94,0.00,,,0.00,0.000000,,2013-01-11 05:32:00,
2013-01-11 00:53:00,69.0,67.0,-100.00,NE,35,2.0,4.0,94,0.00,,,0.00,0.000000,,2013-01-11 05:53:00,
2013-01-11 01:03:00,69.0,67.0,-100.00,NE,35,2.0,4.0,94,0.00,,,0.00,0.000000,,2013-01-11 06:03:00,
2013-01-11 01:12:00,69.0,67.0,-100.00,NE,35,2.0,4.0,94,0.00,,,0.00,0.000000,,2013-01-11 06:12:00,
2013-01-11 01:22:00,69.0,67.0,-100.00,NE,35,2.0,4.0,94,0.00,,,0.00,0.000000,,2013-01-11 06:22:00,
2013-01-11 01:32:00,68.0,67.0,-100.00,ENE,69,4.0,4.0,95,0.00,,,0.00,0.000000,,2013-01-11 06:32:00,
2013-01-11 01:52:00,68.0,67.0,-100.00,ENE,69,4.0,4.0,95,0.00,,,0.00,0.000000,,2013-01-11 06:52:00,
2013-01-11 02:02:00,68.0,67.0,-100.00,ENE,69,4.0,4.0,95,0.00,,,0.00,0.000000,,2013-01-11 07:02:00,
2013-01-11 02:12:00,68.0,67.0,-100.00,ENE,69,4.0,4.0,95,0.00,,,0.00,0.000000,,2013-01-11 07:12:00,
2013-01-11 02:22:00,68.0,67.0,-100.00,ENE,69,4.0,4.0,95,0.00,,,0.00,0.000000,,2013-01-11 07:22:00,
2013-01-11 02:32:00,68.0,67.0,-100.00,East,100,4.0,5.0,96,0.00,,,0.00,0.000000,,2013-01-11 07:32:00,
2013-01-11 02:53:00,68.0,67.0,-100.00,East,100,4.0,5.0,96,0.00,,,0.00,0.000000,,2013-01-11 07:53:00,
2013-01-11 03:02:00,68.0,67.0,-100.00,East,100,4.0,5.0,96,0.00,,,0.00,0.000000,,2013-01-11 08:02:00,
2013-01-11 03:12:00,68.0,67.0,-100.00,East,100,4.0,5.0,96,0.00,,,0.00,0.000000,,2013-01-11 08:12:00,
2013-01-11 03:22:00,68.0,67.0,-100.00,East,100,4.0,5.0,96,0.00,,,0.00,0.000000,,2013-01-11 08:22:00,
2013-01-11 03:32:00,67.0,66.0,-100.00,ESE,103,4.0,5.0,97,0.00,,,0.00,0.000000,,2013-01-11 08:32:00,
2013-01-11 03:53:00,67.0,66.0,-100.00,ESE,103,4.0,5.0,97,0.00,,,0.00,0.000000,,2013-01-11 08:53:00,
2013-01-11 04:03:00,67.0,66.0,-100.00,ESE,103,4.0,5.0,97,0.00,,,0.00,0.000000,,2013-01-11 09:03:00,
2013-01-11 04:12:00,67.0,66.0,-100.00,ESE,103,4.0,5.0,97,0.00,,,0.00,0.000000,,2013-01-11 09:12:00,
2013-01-11 04:23:00,67.0,66.0,-100.00,ESE,103,4.0,5.0,97,0.00,,,0.00,0.000000,,2013-01-11 09:23:00,
2013-01-11 04:32:00,67.0,66.0,-100.00,ENE,62,2.0,4.0,98,0.00,,,0.00,0.000000,,2013-01-11 09:32:00,
2013-01-11 04:52:00,67.0,66.0,-100.00,ENE,62,2.0,4.0,98,0.00,,,0.00,0.000000,,2013-01-11 09:52:00,
2013-01-11 05:02:00,67.0,66.0,-100.00,ENE,62,2.0,4.0,98,0.00,,,0.00,0.000000,,2013-01-11 10:02:00,
2013-01-11 05:12:00,67.0,66.0,-100.00,ENE,62,2.0,4.0,98,0.00,,,0.00,0.000000,,2013-01-11 10:12:00,
2013-01-11 05:22:00,67.0,66.0,-100.00,ENE,62,2.0,4.0,98,0.00,,,0.00,0.000000,,2013-01-11 10:22:00,
2013-01-11 05:32:00,66.0,65.0,-100.00,NE,38,1.0,4.0,98,0.00,,,0.00,0.000000,,2013-01-11 10:32:00,
2013-01-11 05:53:00,66.0,65.0,-100.00,NE,38,1.0,4.0,98,0.00,,,0.00,0.000000,,2013-01-11 10:53:00,
2013-01-11 06:03:00,66.0,65.0,-100.00,NE,38,1.0,4.0,98,0.00,,,0.00,0.000000,,2013-01-11 11:03:00,
2013-01-11 06:12:00,66.0,65.0,-100.00,NE,38,1.0,4.0,98,0.00,,,0.00,0.000000,,2013-01-11 11:12:00,
2013-01-11 06:22:00,66.0,65.0,-100.00,NE,38,1.0,4.0,98,0.00,,,0.00,0.000000,,2013-01-11 11:22:00,
2013-01-11 06:32:00,67.0,66.0,-100.00,North,7,1.0,6.0,98,0.00,,,0.00,0.000000,,2013-01-11 11:32:00,
2013-01-11 06:53:00,67.0,66.0,-100.00,North,7,1.0,6.0,98,0.00,,,0.00,0.000000,,2013-01-11 11:53:00,
2013-01-11 07:03:00,67.0,66.0,-100.00,North,7,1.0,6.0,98,0.00,,,0.00,0.000000,,2013-01-11 12:03:00,
2013-01-11 07:12:00,67.0,66.0,-100.00,North,7,1.0,6.0,98,0.00,,,0.00,0.000000,,2013-01-11 12:12:00,
2013-01-11 07:23:00,67.0,66.0,-100.00,North,7,1.0,6.0,98,0.00,,,0.00,0.000000,,2013-01-11 12:23:00,
2013-01-11 07:32:00,66.0,65.0,-100.00,North,358,3.0,6.0,98,0.00,,,-99.99,4.000000,,2013-01-11 12:32:00,
2013-01-11 07:53:00,66.0,65.0,-100.00,North,358,3.0,6.0,98,0.00,,,-99.99,4.000000,,2013-01-11 12:53:00,
2013-01-11 08:03:00,66.0,65.0,-100.00,North,358,3.0,6.0,98,0.00,,,-99.99,4.000000,,2013-01-11 13:03:00,
2013-01-11 08:13:00,66.0,65.0,-100.00,North,358,3.0,6.0,98,0.00,,,-99.99,4.000000,,2013-01-11 13:13:00,
2013-01-11 08:22:00,66.0,65.0,-100.00,North,358,3.0,6.0,98,0.00,,,-99.99,4.000000,,2013-01-11 13:22:00,
2013-01-11 08:32:00,72.0,70.0,-100.00,ENE,71,3.0,4.0,94,0.00,,,-99.99,102.000000,,2013-01-11 13:32:00,
2013-01-11 08:53:00,72.0,70.0,-100.00,ENE,71,3.0,4.0,94,0.00,,,-99.99,102.000000,,2013-01-11 13:53:00,
2013-01-11 09:03:00,72.0,70.0,-100.00,ENE,71,3.0,4.0,94,0.00,,,-99.99,102.000000,,2013-01-11 14:03:00,
2013-01-11 09:12:00,72.0,70.0,-100.00,ENE,71,3.0,4.0,94,0.00,,,-99.99,102.000000,,2013-01-11 14:12:00,
2013-01-11 09:23:00,72.0,70.0,-100.00,ENE,71,3.0,4.0,94,0.00,,,-99.99,102.000000,,2013-01-11 14:23:00,
2013-01-11 09:32:00,79.0,69.0,-100.00,SSE,148,7.0,9.0,71,0.00,,,0.00,290.000000,,2013-01-11 14:32:00,
2013-01-11 09:53:00,79.0,69.0,-100.00,SSE,148,7.0,9.0,71,0.00,,,0.00,290.000000,,2013-01-11 14:53:00,
2013-01-11 10:03:00,79.0,69.0,-100.00,SSE,148,7.0,9.0,71,0.00,,,0.00,290.000000,,2013-01-11 15:03:00,
2013-01-11 10:13:00,79.0,69.0,-100.00,SSE,148,7.0,9.0,71,0.00,,,0.00,290.000000,,2013-01-11 15:13:00,
2013-01-11 10:23:00,79.0,69.0,-100.00,SSE,148,7.0,9.0,71,0.00,,,0.00,290.000000,,2013-01-11 15:23:00,
2013-01-11 10:32:00,78.0,68.0,-100.00,ESE,104,6.0,12.0,71,0.00,,,0.00,273.000000,,2013-01-11 15:32:00,
2013-01-11 10:53:00,78.0,68.0,-100.00,ESE,104,6.0,12.0,71,0.00,,,0.00,273.000000,,2013-01-11 15:53:00,
2013-01-11 11:03:00,78.0,68.0,-100.00,ESE,104,6.0,12.0,71,0.00,,,0.00,273.000000,,2013-01-11 16:03:00,
2013-01-11 11:13:00,78.0,68.0,-100.00,ESE,104,6.0,12.0,71,0.00,,,0.00,273.000000,,2013-01-11 16:13:00,
2013-01-11 11:23:00,78.0,68.0,-100.00,ESE,104,6.0,12.0,71,0.00,,,0.00,273.000000,,2013-01-11 16:23:00,
2013-01-11 11:32:00,76.0,67.0,-100.00,East,96,10.0,18.0,74,0.00,,,0.00,254.000000,,2013-01-11 16:32:00,
2013-01-11 11:53:00,76.0,67.0,-100.00,East,96,10.0,18.0,74,0.00,,,0.00,254.000000,,2013-01-11 16:53:00,
2013-01-11 12:03:00,76.0,67.0,-100.00,East,96,10.0,18.0,74,0.00,,,0.00,254.000000,,2013-01-11 17:03:00,
2013-01-11 12:12:00,76.0,67.0,-100.00,East,96,10.0,18.0,74,0.00,,,0.00,254.000000,,2013-01-11 17:12:00,
2013-01-11 12:22:00,76.0,67.0,-100.00,East,96,10.0,18.0,74,0.00,,,0.00,254.000000,,2013-01-11 17:22:00,
2013-01-11 12:32:00,81.0,68.0,-100.00,SE,142,9.0,12.0,64,0.00,,,0.00,466.000000,,2013-01-11 17:32:00,
2013-01-11 12:53:00,81.0,68.0,-100.00,SE,142,9.0,12.0,64,0.00,,,0.00,466.000000,,2013-01-11 17:53:00,
2013-01-11 13:04:00,81.0,68.0,-100.00,SE,142,9.0,12.0,64,0.00,,,0.00,466.000000,,2013-01-11 18:04:00,
2013-01-11 13:13:00,81.0,68.0,-100.00,SE,142,9.0,12.0,64,0.00,,,0.00,466.000000,,2013-01-11 18:13:00,
2013-01-11 13:23:00,81.0,68.0,-100.00,SE,142,9.0,12.0,64,0.00,,,0.00,466.000000,,2013-01-11 18:23:00,
2013-01-11 13:32:00,79.0,66.0,-100.00,East,97,13.0,18.0,64,0.00,,,0.00,516.000000,,2013-01-11 18:32:00,
2013-01-11 13:53:00,79.0,66.0,-100.00,East,97,13.0,18.0,64,0.00,,,0.00,516.000000,,2013-01-11 18:53:00,
2013-01-11 14:03:00,79.0,66.0,-100.00,East,97,13.0,18.0,64,0.00,,,0.00,516.000000,,2013-01-11 19:03:00,
2013-01-11 14:13:00,79.0,66.0,-100.00,East,97,13.0,18.0,64,0.00,,,0.00,516.000000,,2013-01-11 19:13:00,
2013-01-11 14:23:00,79.0,66.0,-100.00,East,97,13.0,18.0,64,0.00,,,0.00,516.000000,,2013-01-11 19:23:00,
2013-01-11 14:32:00,79.0,66.0,-100.00,ESE,105,13.0,20.0,65,0.00,,,0.00,430.000000,,2013-01-11 19:32:00,
2013-01-11 14:54:00,79.0,66.0,-100.00,ESE,105,13.0,20.0,65,0.00,,,0.00,430.000000,,2013-01-11 19:54:00,
2013-01-11 15:03:00,79.0,66.0,-100.00,ESE,105,13.0,20.0,65,0.00,,,0.00,430.000000,,2013-01-11 20:03:00,
2013-01-11 15:13:00,79.0,66.0,-100.00,ESE,105,13.0,20.0,65,0.00,,,0.00,430.000000,,2013-01-11 20:13:00,
2013-01-11 15:22:00,79.0,66.0,-100.00,ESE,105,13.0,20.0,65,0.00,,,0.00,430.000000,,2013-01-11 20:22:00,
2013-01-11 15:32:00,81.0,67.0,-100.00,East,100,12.0,19.0,63,0.00,,,0.00,345.000000,,2013-01-11 20:32:00,
2013-01-11 15:53:00,81.0,67.0,-100.00,East,100,12.0,19.0,63,0.00,,,0.00,345.000000,,2013-01-11 20:53:00,
2013-01-11 16:03:00,81.0,67.0,-100.00,East,100,12.0,19.0,63,0.00,,,0.00,345.000000,,2013-01-11 21:03:00,
2013-01-11 16:13:00,81.0,67.0,-100.00,East,100,12.0,19.0,63,0.00,,,0.00,345.000000,,2013-01-11 21:13:00,
2013-01-11 16:23:00,81.0,67.0,-100.00,East,100,12.0,19.0,63,0.00,,,0.00,345.000000,,2013-01-11 21:23:00,
2013-01-11 16:32:00,78.0,66.0,-100.00,ESE,106,12.0,18.0,66,0.00,,,0.00,226.000000,,2013-01-11 21:32:00,
2013-01-11 16:53:00,78.0,66.0,-100.00,ESE,106,12.0,18.0,66,0.00,,,0.00,226.000000,,2013-01-11 21:53:00,
2013-01-11 17:03:00,78.0,66.0,-100.00,ESE,106,12.0,18.0,66,0.00,,,0.00,226.000000,,2013-01-11 22:03:00,
2013-01-11 17:13:00,78.0,66.0,-100.00,ESE,106,12.0,18.0,66,0.00,,,0.00,226.000000,,2013-01-11 22:13:00,
2013-01-11 17:23:00,78.0,66.0,-100.00,ESE,106,12.0,18.0,66,0.00,,,0.00,226.000000,,2013-01-11 22:23:00,
2013-01-11 17:32:00,74.0,66.0,-100.00,East,95,8.0,16.0,75,0.00,,,0.00,57.000000,,2013-01-11 22:32:00,
2013-01-11 17:53:00,74.0,66.0,-100.00,East,95,8.0,16.0,75,0.00,,,0.00,57.000000,,2013-01-11 22:53:00,
2013-01-11 18:03:00,74.0,66.0,-100.00,East,95,8.0,16.0,75,0.00,,,0.00,57.000000,,2013-01-11 23:03:00,
2013-01-11 18:13:00,74.0,66.0,-100.00,East,95,8.0,16.0,75,0.00,,,0.00,57.000000,,2013-01-11 23:13:00,
2013-01-11 18:23:00,74.0,66.0,-100.00,East,95,8.0,16.0,75,0.00,,,0.00,57.000000,,2013-01-11 23:23:00,
2013-01-11 18:32:00,72.0,67.0,-100.00,ESE,105,5.0,10.0,84,0.00,,,0.00,2.000000,,2013-01-11 23:32:00,
2013-01-11 18:54:00,72.0,67.0,-100.00,ESE,105,5.0,10.0,84,0.00,,,0.00,2.000000,,2013-01-11 23:54:00,
2013-01-11 19:03:00,72.0,67.0,-100.00,ESE,105,5.0,10.0,84,0.00,,,0.00,2.000000,,2013-01-12 00:03:00,
2013-01-11 19:12:00,72.0,67.0,-100.00,ESE,105,5.0,10.0,84,0.00,,,0.00,2.000000,,2013-01-12 00:12:00,
2013-01-11 19:23:00,72.0,67.0,-100.00,ESE,105,5.0,10.0,84,0.00,,,0.00,2.000000,,2013-01-12 00:23:00,
2013-01-11 19:32:00,70.0,68.0,-100.00,ENE,72,4.0,7.0,92,0.00,,,0.00,0.000000,,2013-01-12 00:32:00,
2013-01-11 19:53:00,70.0,68.0,-100.00,ENE,72,4.0,7.0,92,0.00,,,0.00,0.000000,,2013-01-12 00:53:00,
2013-01-11 20:03:00,70.0,68.0,-100.00,ENE,72,4.0,7.0,92,0.00,,,0.00,0.000000,,2013-01-12 01:03:00,
2013-01-11 20:12:00,70.0,68.0,-100.00,ENE,72,4.0,7.0,92,0.00,,,0.00,0.000000,,2013-01-12 01:12:00,
2013-01-11 20:22:00,70.0,68.0,-100.00,ENE,72,4.0,7.0,92,0.00,,,0.00,0.000000,,2013-01-12 01:22:00,
2013-01-11 20:32:00,70.0,68.0,-100.00,NE,53,5.0,6.0,93,0.00,,,0.00,0.000000,,2013-01-12 01:32:00,
2013-01-11 20:53:00,70.0,68.0,-100.00,NE,53,5.0,6.0,93,0.00,,,0.00,0.000000,,2013-01-12 01:53:00,
2013-01-11 21:02:00,70.0,68.0,-100.00,NE,53,5.0,6.0,93,0.00,,,0.00,0.000000,,2013-01-12 02:02:00,
2013-01-11 21:12:00,70.0,68.0,-100.00,NE,53,5.0,6.0,93,0.00,,,0.00,0.000000,,2013-01-12 02:12:00,
2013-01-11 21:22:00,70.0,68.0,-100.00,NE,53,5.0,6.0,93,0.00,,,0.00,0.000000,,2013-01-12 02:22:00,
2013-01-11 21:32:00,70.0,68.0,-100.00,ENE,57,4.0,6.0,93,0.00,,,0.00,0.000000,,2013-01-12 02:32:00,
2013-01-11 21:53:00,70.0,68.0,-100.00,ENE,57,4.0,6.0,93,0.00,,,0.00,0.000000,,2013-01-12 02:53:00,
2013-01-11 22:03:00,70.0,68.0,-100.00,ENE,57,4.0,6.0,93,0.00,,,0.00,0.000000,,2013-01-12 03:03:00,
2013-01-11 22:12:00,70.0,68.0,-100.00,ENE,57,4.0,6.0,93,0.00,,,0.00,0.000000,,2013-01-12 03:12:00,
2013-01-11 22:22:00,70.0,68.0,-100.00,ENE,57,4.0,6.0,93,0.00,,,0.00,0.000000,,2013-01-12 03:22:00,
2013-01-11 22:32:00,71.0,68.0,-100.00,ESE,104,5.0,6.0,90,0.00,,,0.00,0.000000,,2013-01-12 03:32:00,
2013-01-11 22:53:00,71.0,68.0,-100.00,ESE,104,5.0,6.0,90,0.00,,,0.00,0.000000,,2013-01-12 03:53:00,
2013-01-11 23:03:00,71.0,68.0,-100.00,ESE,104,5.0,6.0,90,0.00,,,0.00,0.000000,,2013-01-12 04:03:00,
2013-01-11 23:12:00,71.0,68.0,-100.00,ESE,104,5.0,6.0,90,0.00,,,0.00,0.000000,,2013-01-12 04:12:00,
2013-01-11 23:22:00,71.0,68.0,-100.00,ESE,104,5.0,6.0,90,0.00,,,0.00,0.000000,,2013-01-12 04:22:00,
2013-01-11 23:32:00,72.0,65.0,-100.00,East,94,5.0,11.0,79,0.00,,,0.00,0.000000,,2013-01-12 04:32:00,
2013-01-11 23:52:00,72.0,65.0,-100.00,East,94,5.0,11.0,79,0.00,,,0.00,0.000000,,2013-01-12 04:52:00,